createdAt,value
2018-11-05T00:00:36.806Z,50.74
2018-11-05T00:03:05.582Z,50.45
2018-11-05T00:05:33.608Z,51.47
2018-11-05T00:08:01.629Z,52.67
2018-11-05T00:10:29.760Z,51.08
2018-11-05T00:12:57.829Z,50.88
2018-11-05T00:15:25.898Z,51.63
2018-11-05T00:17:53.944Z,51.68
2018-11-05T00:20:21.988Z,51.07
2018-11-05T00:22:50.012Z,51.65
2018-11-05T00:25:18.140Z,51.38
2018-11-05T00:27:46.171Z,50.85
2018-11-05T00:30:14.910Z,51.55
2018-11-05T00:32:43.585Z,50.96
2018-11-05T00:35:12.773Z,51.83
2018-11-05T00:37:40.811Z,51.93
2018-11-05T00:40:11.176Z,52.06
2018-11-05T00:42:39.257Z,50.94
2018-11-05T00:45:08.384Z,52.53
2018-11-05T00:47:36.590Z,52.11
2018-11-05T00:50:06.822Z,51.17
2018-11-05T00:52:35.111Z,51.86
2018-11-05T00:55:03.188Z,51.87
2018-11-05T00:57:31.327Z,52.73
2018-11-05T00:59:59.838Z,52.42
2018-11-05T01:02:28.033Z,52.29
2018-11-05T01:04:56.097Z,51.21
2018-11-05T01:07:24.179Z,51.97
2018-11-05T01:09:52.259Z,51.85
2018-11-05T01:12:20.328Z,51.84
2018-11-05T01:14:48.363Z,52.76
2018-11-05T01:17:16.412Z,52.96
2018-11-05T01:19:44.663Z,51.24
2018-11-05T01:22:12.820Z,52.48
2018-11-05T01:24:40.849Z,52.26
2018-11-05T01:27:08.947Z,51.96
2018-11-05T01:29:36.979Z,52.52
2018-11-05T01:32:05.512Z,51.94
2018-11-05T01:34:33.536Z,51.13
2018-11-05T01:37:01.646Z,52.97
2018-11-05T01:39:29.700Z,51.88
2018-11-05T01:41:57.764Z,52.56
2018-11-05T01:44:25.783Z,53.09
2018-11-05T01:46:54.051Z,52.46
2018-11-05T01:49:22.107Z,52.30
2018-11-05T01:51:50.171Z,52.84
2018-11-05T01:54:18.217Z,52.61
2018-11-05T01:56:47.039Z,53.08
2018-11-05T01:59:15.101Z,52.67
2018-11-05T02:01:43.137Z,52.31
2018-11-05T02:04:11.207Z,52.93
2018-11-05T02:06:39.284Z,52.16
2018-11-05T02:09:07.763Z,52.58
2018-11-05T02:11:35.803Z,53.38
2018-11-05T02:14:03.919Z,52.64
2018-11-05T02:16:31.992Z,53.35
2018-11-05T02:19:00.050Z,53.38
2018-11-05T02:21:28.120Z,53.00
2018-11-05T02:23:56.178Z,52.88
2018-11-05T02:26:24.200Z,52.69
2018-11-05T02:28:52.441Z,52.28
2018-11-05T02:31:20.459Z,52.51
2018-11-05T02:33:48.501Z,53.27
2018-11-05T02:36:16.798Z,52.52
2018-11-05T02:38:44.849Z,51.51
2018-11-05T02:41:13.291Z,51.71
2018-11-05T02:43:41.408Z,52.85
2018-11-05T02:46:09.460Z,52.78
2018-11-05T02:48:37.490Z,53.01
2018-11-05T02:51:05.559Z,52.66
2018-11-05T02:53:33.586Z,53.42
2018-11-05T02:56:01.631Z,53.17
2018-11-05T02:58:29.752Z,53.24
2018-11-05T03:00:58.182Z,53.19
2018-11-05T03:03:26.297Z,53.79
2018-11-05T03:05:54.363Z,52.69
2018-11-05T03:08:22.424Z,52.54
2018-11-05T03:10:50.546Z,52.11
2018-11-05T03:13:19.515Z,53.10
2018-11-05T03:15:47.551Z,53.12
2018-11-05T03:18:15.586Z,52.25
2018-11-05T03:20:43.617Z,51.86
2018-11-05T03:23:11.680Z,53.04
2018-11-05T03:25:39.691Z,52.80
2018-11-05T03:28:07.735Z,52.97
2018-11-05T03:30:35.790Z,52.60
2018-11-05T03:33:03.862Z,53.68
2018-11-05T03:35:31.904Z,53.47
2018-11-05T03:37:59.926Z,52.85
2018-11-05T03:40:27.952Z,52.70
2018-11-05T03:42:56.056Z,53.47
2018-11-05T03:45:24.085Z,53.09
2018-11-05T03:47:52.113Z,53.21
2018-11-05T03:50:20.500Z,52.69
2018-11-05T03:52:48.791Z,53.75
2018-11-05T03:55:17.493Z,53.48
2018-11-05T03:57:45.575Z,52.61
2018-11-05T04:00:14.865Z,52.84
2018-11-05T04:02:42.892Z,52.72
2018-11-05T04:05:11.054Z,53.71
2018-11-05T04:07:39.811Z,53.59
2018-11-05T04:10:08.790Z,53.84
2018-11-05T04:12:36.931Z,53.37
2018-11-05T04:15:05.124Z,53.51
2018-11-05T04:17:33.270Z,53.34
2018-11-05T04:20:01.494Z,52.92
2018-11-05T04:22:29.624Z,52.86
2018-11-05T04:24:57.670Z,53.34
2018-11-05T04:27:25.805Z,53.74
2018-11-05T04:29:53.903Z,53.07
2018-11-05T04:32:23.015Z,53.82
2018-11-05T04:34:51.143Z,53.41
2018-11-05T04:37:19.255Z,53.56
2018-11-05T04:39:47.354Z,53.80
2018-11-05T04:42:15.542Z,53.63
2018-11-05T04:44:43.670Z,54.51
2018-11-05T04:47:11.795Z,54.34
2018-11-05T04:49:39.994Z,54.06
2018-11-05T04:52:08.043Z,53.45
2018-11-05T04:54:36.330Z,54.41
2018-11-05T04:57:04.431Z,54.25
2018-11-05T04:59:32.543Z,53.88
2018-11-05T05:02:00.730Z,54.44
2018-11-05T05:04:28.850Z,54.73
2018-11-05T05:06:57.000Z,54.76
2018-11-05T05:09:25.728Z,55.21
2018-11-05T05:11:53.831Z,55.25
2018-11-05T05:14:21.965Z,54.72
2018-11-05T05:16:50.062Z,55.46
2018-11-05T05:19:18.170Z,54.14
2018-11-05T05:21:46.282Z,53.73
2018-11-05T05:24:14.391Z,55.27
2018-11-05T05:26:42.490Z,54.81
2018-11-05T05:29:10.714Z,55.11
2018-11-05T05:31:38.770Z,54.91
2018-11-05T05:34:07.053Z,55.38
2018-11-05T05:36:35.099Z,55.35
2018-11-05T05:39:03.797Z,55.21
2018-11-05T05:41:31.871Z,54.84
2018-11-05T05:43:59.936Z,54.63
2018-11-05T05:46:28.156Z,54.86
2018-11-05T05:48:56.792Z,54.41
2018-11-05T05:51:24.843Z,54.05
2018-11-05T05:53:52.950Z,53.75
2018-11-05T05:56:21.156Z,54.92
2018-11-05T05:58:49.266Z,54.60
2018-11-05T06:01:17.359Z,54.06
2018-11-05T06:03:45.443Z,55.44
2018-11-05T06:06:13.582Z,55.85
2018-11-05T06:08:41.582Z,56.15
2018-11-05T06:11:09.675Z,55.25
2018-11-05T06:13:37.747Z,55.24
2018-11-05T06:16:05.884Z,55.86
2018-11-05T06:18:33.978Z,55.28
2018-11-05T06:21:02.056Z,54.93
2018-11-05T06:23:30.186Z,55.82
2018-11-05T06:25:58.656Z,56.05
2018-11-05T06:28:26.778Z,55.55
2018-11-05T06:30:54.773Z,55.86
2018-11-05T06:33:22.832Z,55.86
2018-11-05T06:35:51.114Z,56.21
2018-11-05T06:38:19.319Z,55.91
2018-11-05T06:40:47.379Z,55.54
2018-11-05T06:43:15.542Z,55.34
2018-11-05T06:45:43.721Z,55.37
2018-11-05T06:48:11.765Z,55.13
2018-11-05T06:50:39.830Z,55.55
2018-11-05T06:53:07.923Z,55.70
2018-11-05T06:55:36.011Z,55.42
2018-11-05T06:58:04.306Z,56.55
2018-11-05T07:00:32.404Z,56.46
2018-11-05T07:03:00.864Z,57.14
2018-11-05T07:05:28.995Z,57.44
2018-11-05T07:07:57.157Z,57.60
2018-11-05T07:10:25.255Z,57.43
2018-11-05T07:12:53.402Z,56.55
2018-11-05T07:15:21.559Z,57.71
2018-11-05T07:17:50.202Z,56.70
2018-11-05T07:20:19.509Z,56.63
2018-11-05T07:22:48.491Z,57.01
2018-11-05T07:25:16.702Z,56.78
2018-11-05T07:27:45.930Z,56.10
2018-11-05T07:30:16.005Z,55.66
2018-11-05T07:32:44.320Z,56.74
2018-11-05T07:35:13.527Z,53.92
2018-11-05T07:37:42.099Z,54.32
2018-11-05T07:40:11.408Z,56.14
2018-11-05T07:42:39.717Z,56.62
2018-11-05T07:45:09.783Z,56.94
2018-11-05T07:47:37.871Z,56.31
2018-11-05T07:50:08.462Z,56.37
2018-11-05T07:52:36.483Z,55.49
2018-11-05T07:55:05.203Z,56.71
2018-11-05T07:57:33.326Z,55.65
2018-11-05T08:00:01.414Z,54.71
2018-11-05T08:02:29.502Z,55.41
2018-11-05T08:04:57.590Z,56.01
2018-11-05T08:07:25.807Z,56.51
2018-11-05T08:09:53.843Z,55.63
2018-11-05T08:12:21.963Z,55.64
2018-11-05T08:14:50.018Z,56.00
2018-11-05T08:17:18.067Z,55.29
2018-11-05T08:19:46.134Z,55.91
2018-11-05T08:22:14.178Z,55.54
2018-11-05T08:24:42.258Z,55.37
2018-11-05T08:27:10.310Z,55.28
2018-11-05T08:29:38.388Z,54.63
2018-11-05T08:32:07.270Z,55.45
2018-11-05T08:34:35.379Z,55.62
2018-11-05T08:37:03.503Z,54.84
2018-11-05T08:39:31.655Z,55.56
2018-11-05T08:41:59.747Z,55.90
2018-11-05T08:44:27.847Z,55.78
2018-11-05T08:46:56.021Z,54.59
2018-11-05T08:49:23.965Z,55.84
2018-11-05T08:51:52.235Z,54.77
2018-11-05T08:54:20.160Z,54.13
2018-11-05T08:56:48.218Z,54.41
2018-11-05T08:59:16.284Z,54.82
2018-11-05T09:01:44.390Z,54.38
2018-11-05T09:04:12.598Z,54.96
2018-11-05T09:06:40.722Z,54.78
2018-11-05T09:09:09.407Z,54.76
2018-11-05T09:11:38.054Z,55.49
2018-11-05T09:14:05.684Z,55.52
2018-11-05T09:16:33.774Z,54.57
2018-11-05T09:19:01.926Z,55.27
2018-11-05T09:21:29.994Z,54.82
2018-11-05T09:23:58.053Z,55.32
2018-11-05T09:26:26.117Z,54.68
2018-11-05T09:28:54.215Z,53.60
2018-11-05T09:31:22.274Z,54.86
2018-11-05T09:33:50.379Z,53.66
2018-11-05T09:36:18.439Z,53.86
2018-11-05T09:38:46.670Z,54.34
2018-11-05T09:41:14.744Z,53.56
2018-11-05T09:43:42.819Z,54.00
2018-11-05T09:46:11.712Z,54.36
2018-11-05T09:48:39.811Z,53.97
2018-11-05T09:51:07.872Z,53.45
2018-11-05T09:53:35.959Z,52.75
2018-11-05T09:56:04.249Z,54.71
2018-11-05T09:58:32.300Z,54.22
2018-11-05T10:01:00.430Z,54.17
2018-11-05T10:03:28.808Z,53.89
2018-11-05T10:05:56.619Z,54.27
2018-11-05T10:08:24.747Z,53.55
2018-11-05T10:10:52.933Z,54.32
2018-11-05T10:13:20.983Z,54.78
2018-11-05T10:15:49.099Z,53.62
2018-11-05T10:18:17.223Z,53.65
2018-11-05T10:20:45.325Z,54.79
2018-11-05T10:23:13.427Z,53.83
2018-11-05T10:25:41.568Z,54.72
2018-11-05T10:28:09.875Z,54.00
2018-11-05T10:30:37.971Z,54.48
2018-11-05T10:33:06.123Z,54.27
2018-11-05T10:35:39.678Z,54.96
2018-11-05T10:38:07.807Z,53.90
2018-11-05T10:40:36.107Z,53.74
2018-11-05T10:43:04.384Z,54.26
2018-11-05T10:45:32.488Z,53.70
2018-11-05T10:48:00.623Z,53.37
2018-11-05T10:50:28.937Z,54.02
2018-11-05T10:52:56.999Z,53.86
2018-11-05T10:55:25.120Z,53.81
2018-11-05T10:57:53.229Z,54.24
2018-11-05T11:00:27.059Z,53.07
2018-11-05T11:03:00.474Z,54.24
2018-11-05T11:05:29.538Z,53.28
2018-11-05T11:07:58.494Z,53.80
2018-11-05T11:10:27.405Z,53.35
2018-11-05T11:12:55.836Z,53.94
2018-11-05T11:15:23.968Z,52.40
2018-11-05T11:17:52.268Z,53.46
2018-11-05T11:20:20.347Z,53.88
2018-11-05T11:22:48.395Z,53.42
2018-11-05T11:25:17.052Z,53.48
2018-11-05T11:27:45.189Z,52.78
2018-11-05T11:30:14.280Z,53.29
2018-11-05T11:32:42.691Z,52.32
2018-11-05T11:35:11.452Z,53.17
2018-11-05T11:37:39.745Z,52.96
2018-11-05T11:40:14.195Z,52.72
2018-11-05T11:42:43.171Z,53.50
2018-11-05T11:45:11.867Z,53.98
2018-11-05T11:47:40.015Z,53.21
2018-11-05T11:50:09.604Z,53.12
2018-11-05T11:52:37.872Z,53.86
2018-11-05T11:55:07.312Z,53.57
2018-11-05T11:57:35.487Z,54.37
2018-11-05T12:00:03.647Z,53.09
2018-11-05T12:02:31.798Z,53.47
2018-11-05T12:04:59.990Z,53.30
2018-11-05T12:07:28.136Z,53.20
2018-11-05T12:09:56.379Z,53.04
2018-11-05T12:12:24.559Z,53.79
2018-11-05T12:14:52.874Z,54.10
2018-11-05T12:17:20.783Z,53.16
2018-11-05T12:19:49.846Z,54.06
2018-11-05T12:22:18.058Z,53.94
2018-11-05T12:24:46.179Z,52.90
2018-11-05T12:27:14.320Z,53.09
2018-11-05T12:29:42.442Z,53.19
2018-11-05T12:32:10.630Z,53.24
2018-11-05T12:34:38.703Z,51.82
2018-11-05T12:37:06.891Z,52.34
2018-11-05T12:39:34.994Z,52.16
2018-11-05T12:42:03.143Z,52.25
2018-11-05T12:44:31.259Z,52.34
2018-11-05T12:46:59.355Z,52.94
2018-11-05T12:49:27.479Z,52.67
2018-11-05T12:51:55.951Z,52.63
2018-11-05T12:54:24.047Z,51.97
2018-11-05T12:56:52.155Z,51.03
2018-11-05T12:59:20.261Z,51.58
2018-11-05T13:01:48.367Z,50.96
2018-11-05T13:04:16.628Z,51.15
2018-11-05T13:06:44.683Z,51.93
2018-11-05T13:09:12.814Z,52.22
2018-11-05T13:11:40.942Z,52.59
2018-11-05T13:14:09.043Z,52.89
2018-11-05T13:16:37.243Z,52.19
2018-11-05T13:19:05.564Z,53.26
2018-11-05T13:21:33.699Z,51.78
2018-11-05T13:24:01.809Z,51.95
2018-11-05T13:26:29.942Z,50.86
2018-11-05T13:28:58.035Z,51.63
2018-11-05T13:31:26.232Z,50.54
2018-11-05T13:33:54.580Z,50.77
2018-11-05T13:36:22.767Z,50.72
2018-11-05T13:38:50.873Z,49.86
2018-11-05T13:41:19.012Z,50.36
2018-11-05T13:43:47.154Z,51.51
2018-11-05T13:46:15.774Z,52.17
2018-11-05T13:48:43.824Z,52.55
2018-11-05T13:51:11.559Z,52.92
2018-11-05T13:53:39.663Z,52.88
2018-11-05T13:56:07.772Z,51.92
2018-11-05T13:58:35.983Z,52.07
2018-11-05T14:01:04.403Z,52.23
2018-11-05T14:03:32.491Z,52.51
2018-11-05T14:06:00.592Z,52.44
2018-11-05T14:08:28.657Z,53.10
2018-11-05T14:10:56.786Z,53.23
2018-11-05T14:13:24.797Z,53.70
2018-11-05T14:15:52.969Z,53.08
2018-11-05T14:18:21.291Z,52.66
2018-11-05T14:20:49.253Z,52.15
2018-11-05T14:23:17.419Z,53.25
2018-11-05T14:25:45.582Z,53.91
2018-11-05T14:28:13.818Z,53.12
2018-11-05T14:30:41.695Z,53.58
2018-11-05T14:33:09.756Z,54.08
2018-11-05T14:35:37.843Z,53.97
2018-11-05T14:38:06.185Z,53.69
2018-11-05T14:40:34.267Z,54.34
2018-11-05T14:43:02.511Z,53.61
2018-11-05T14:45:30.536Z,54.37
2018-11-05T14:47:58.593Z,54.33
2018-11-05T14:50:26.651Z,53.34
2018-11-05T14:52:54.765Z,53.75
2018-11-05T14:55:22.859Z,53.08
2018-11-05T14:57:51.991Z,53.34
2018-11-05T15:00:21.801Z,53.48
2018-11-05T15:02:50.806Z,54.01
2018-11-05T15:05:18.938Z,53.49
2018-11-05T15:07:47.943Z,53.29
2018-11-05T15:10:18.567Z,54.21
2018-11-05T15:12:46.771Z,53.52
2018-11-05T15:15:15.477Z,53.58
2018-11-05T15:17:44.086Z,53.42
2018-11-05T15:20:14.853Z,53.42
2018-11-05T15:22:42.802Z,53.71
2018-11-05T15:25:11.455Z,53.52
2018-11-05T15:27:40.311Z,53.55
2018-11-05T15:30:10.915Z,53.57
2018-11-05T15:32:39.937Z,54.30
2018-11-05T15:35:08.879Z,53.44
2018-11-05T15:37:37.733Z,54.36
2018-11-05T15:40:06.503Z,54.04
2018-11-05T15:42:35.038Z,54.37
2018-11-05T15:45:03.424Z,54.88
2018-11-05T15:47:31.823Z,55.41
2018-11-05T15:50:00.106Z,55.02
2018-11-05T15:52:28.747Z,54.54
2018-11-05T15:54:56.566Z,54.29
2018-11-05T15:57:24.684Z,54.82
2018-11-05T15:59:52.796Z,55.30
2018-11-05T16:02:21.401Z,54.78
2018-11-05T16:04:49.724Z,54.44
2018-11-05T16:07:18.080Z,55.55
2018-11-05T16:09:46.331Z,55.72
2018-11-05T16:12:14.448Z,55.08
2018-11-05T16:14:42.609Z,54.80
2018-11-05T16:17:11.095Z,54.61
2018-11-05T16:19:39.202Z,55.45
2018-11-05T16:22:07.768Z,54.57
2018-11-05T16:24:36.596Z,54.73
2018-11-05T16:27:05.202Z,55.37
2018-11-05T16:29:33.487Z,54.79
2018-11-05T16:32:01.771Z,54.99
2018-11-05T16:34:29.867Z,55.33
2018-11-05T16:36:57.974Z,54.52
2018-11-05T16:39:26.174Z,53.33
2018-11-05T16:41:54.339Z,53.83
2018-11-05T16:44:22.400Z,54.61
2018-11-05T16:46:50.886Z,54.31
2018-11-05T16:49:19.047Z,55.10
2018-11-05T16:51:47.204Z,55.38
2018-11-05T16:54:15.383Z,55.01
2018-11-05T16:56:43.742Z,55.24
2018-11-05T16:59:11.950Z,55.70
2018-11-05T17:01:40.352Z,55.98
2018-11-05T17:04:08.687Z,55.74
2018-11-05T17:06:37.210Z,55.29
2018-11-05T17:09:07.622Z,54.43
2018-11-05T17:11:35.921Z,54.58
2018-11-05T17:14:04.033Z,56.06
2018-11-05T17:16:32.127Z,55.99
2018-11-05T17:19:00.558Z,56.36
2018-11-05T17:21:28.651Z,56.72
2018-11-05T17:23:56.699Z,56.98
2018-11-05T17:26:24.890Z,56.85
2018-11-05T17:28:52.850Z,57.12
2018-11-05T17:31:21.016Z,57.31
2018-11-05T17:33:49.134Z,57.37
2018-11-05T17:36:17.215Z,56.99
2018-11-05T17:38:45.310Z,57.29
2018-11-05T17:41:13.411Z,57.95
2018-11-05T17:43:42.297Z,57.31
2018-11-05T17:46:10.354Z,57.20
2018-11-05T17:48:38.436Z,58.25
2018-11-05T17:51:07.187Z,57.99
2018-11-05T17:53:35.664Z,57.50
2018-11-05T17:56:03.735Z,57.09
2018-11-05T17:58:32.235Z,57.69
2018-11-05T18:01:00.419Z,57.84
2018-11-05T18:03:28.619Z,57.57
2018-11-05T18:05:56.722Z,57.50
2018-11-05T18:08:24.875Z,56.93
2018-11-05T18:10:53.015Z,57.24
2018-11-05T18:13:21.101Z,57.14
2018-11-05T18:15:49.735Z,57.04
2018-11-05T18:18:17.927Z,56.47
2018-11-05T18:20:46.177Z,56.22
2018-11-05T18:23:14.801Z,57.09
2018-11-05T18:25:42.999Z,57.24
2018-11-05T18:28:11.147Z,56.78
2018-11-05T18:30:39.216Z,56.71
2018-11-05T18:33:07.322Z,57.46
2018-11-05T18:35:35.430Z,57.33
2018-11-05T18:38:04.063Z,57.64
2018-11-05T18:40:32.087Z,56.88
2018-11-05T18:43:00.288Z,57.25
2018-11-05T18:45:28.415Z,56.57
2018-11-05T18:47:56.470Z,57.11
2018-11-05T18:50:24.644Z,57.52
2018-11-05T18:52:52.758Z,57.16
2018-11-05T18:55:20.927Z,56.85
2018-11-05T18:57:49.051Z,57.08
2018-11-05T19:00:21.042Z,57.03
2018-11-05T19:02:49.785Z,57.11
2018-11-05T19:05:18.432Z,56.52
2018-11-05T19:07:46.837Z,56.24
2018-11-05T19:10:14.976Z,56.74
2018-11-05T19:12:43.145Z,56.73
2018-11-05T19:15:12.770Z,55.90
2018-11-05T19:17:41.252Z,56.28
2018-11-05T19:20:09.870Z,56.29
2018-11-05T19:22:38.549Z,56.40
2018-11-05T19:25:08.542Z,56.96
2018-11-05T19:27:37.199Z,56.16
2018-11-05T19:30:08.335Z,55.90
2018-11-05T19:32:36.517Z,56.49
2018-11-05T19:35:05.539Z,56.17
2018-11-05T19:37:34.657Z,56.64
2018-11-05T19:40:02.782Z,55.69
2018-11-05T19:42:31.173Z,56.48
2018-11-05T19:44:59.130Z,55.98
2018-11-05T19:47:27.276Z,56.26
2018-11-05T19:49:55.411Z,55.77
2018-11-05T19:52:23.622Z,55.98
2018-11-05T19:54:51.812Z,56.12
2018-11-05T19:57:20.101Z,56.71
2018-11-05T19:59:48.218Z,56.31
2018-11-05T20:02:16.438Z,55.88
2018-11-05T20:04:44.534Z,55.64
2018-11-05T20:07:12.672Z,56.58
2018-11-05T20:09:40.851Z,55.92
2018-11-05T20:12:09.049Z,56.22
2018-11-05T20:14:37.131Z,55.86
2018-11-05T20:17:05.850Z,56.42
2018-11-05T20:19:33.959Z,56.11
2018-11-05T20:22:02.131Z,55.77
2018-11-05T20:24:30.240Z,56.22
2018-11-05T20:26:58.300Z,55.83
2018-11-05T20:29:26.399Z,55.26
2018-11-05T20:31:55.793Z,56.33
2018-11-05T20:34:23.820Z,55.98
2018-11-05T20:36:52.829Z,55.37
2018-11-05T20:39:21.041Z,55.88
2018-11-05T20:41:49.112Z,55.63
2018-11-05T20:44:17.484Z,54.76
2018-11-05T20:46:45.679Z,55.59
2018-11-05T20:49:13.649Z,55.37
2018-11-05T20:51:41.747Z,54.67
2018-11-05T20:54:09.912Z,55.05
2018-11-05T20:56:38.157Z,55.52
2018-11-05T20:59:06.230Z,55.27
2018-11-05T21:01:34.375Z,55.31
2018-11-05T21:04:02.506Z,55.42
2018-11-05T21:06:30.656Z,55.66
2018-11-05T21:08:58.879Z,55.44
2018-11-05T21:11:27.747Z,55.96
2018-11-05T21:13:56.545Z,55.26
2018-11-05T21:16:24.700Z,55.77
2018-11-05T21:18:52.839Z,55.20
2018-11-05T21:21:21.060Z,55.75
2018-11-05T21:23:49.095Z,55.31
2018-11-05T21:26:17.249Z,55.27
2018-11-05T21:28:45.380Z,55.86
2018-11-05T21:31:13.482Z,56.07
2018-11-05T21:33:41.743Z,55.50
2018-11-05T21:36:09.925Z,54.95
2018-11-05T21:38:38.123Z,55.76
2018-11-05T21:41:06.580Z,55.27
2018-11-05T21:43:34.725Z,56.03
2018-11-05T21:46:02.961Z,55.72
2018-11-05T21:48:31.167Z,55.16
2018-11-05T21:50:59.301Z,55.45
2018-11-05T21:53:27.412Z,55.73
2018-11-05T21:55:55.530Z,56.09
2018-11-05T21:58:23.779Z,55.18
2018-11-05T22:00:51.951Z,55.89
2018-11-05T22:03:20.132Z,55.28
2018-11-05T22:05:48.234Z,56.04
2018-11-05T22:08:16.415Z,55.19
2018-11-05T22:10:44.545Z,55.83
2018-11-05T22:13:12.730Z,55.72
2018-11-05T22:15:45.015Z,55.89
2018-11-05T22:18:14.126Z,54.82
2018-11-05T22:20:42.541Z,54.88
2018-11-05T22:23:10.766Z,55.78
2018-11-05T22:25:39.351Z,54.89
2018-11-05T22:28:07.855Z,54.98
2018-11-05T22:30:36.226Z,55.51
2018-11-05T22:33:04.614Z,55.39
2018-11-05T22:35:33.481Z,55.39
2018-11-05T22:38:01.652Z,55.60
2018-11-05T22:40:29.733Z,54.78
2018-11-05T22:42:57.906Z,55.34
2018-11-05T22:45:26.054Z,55.73
2018-11-05T22:47:54.223Z,55.87
2018-11-05T22:50:22.524Z,54.91
2018-11-05T22:52:50.471Z,55.01
2018-11-05T22:55:18.625Z,55.14
2018-11-05T22:57:46.778Z,55.67
2018-11-05T23:00:21.432Z,55.54
2018-11-05T23:02:54.829Z,55.28
2018-11-05T23:05:23.127Z,55.82
2018-11-05T23:07:52.263Z,55.41
2018-11-05T23:10:20.403Z,55.41
2018-11-05T23:12:48.552Z,55.69
2018-11-05T23:15:16.955Z,55.17
2018-11-05T23:17:45.352Z,56.00
2018-11-05T23:20:13.419Z,54.92
2018-11-05T23:22:42.195Z,55.93
2018-11-05T23:25:10.284Z,55.67
2018-11-05T23:27:38.449Z,55.14
2018-11-05T23:30:09.391Z,55.44
2018-11-05T23:32:38.170Z,55.94
2018-11-05T23:35:06.951Z,55.87
2018-11-05T23:37:35.191Z,54.99
2018-11-05T23:40:03.505Z,55.67
2018-11-05T23:42:31.637Z,55.18
2018-11-05T23:44:59.714Z,54.92
2018-11-05T23:47:28.324Z,55.53
2018-11-05T23:49:56.734Z,55.30
2018-11-05T23:52:25.286Z,55.65
2018-11-05T23:54:53.578Z,55.53
2018-11-05T23:57:22.087Z,55.47
2018-11-05T23:59:50.184Z,54.72
